Time;durP1;ratioP1;P1;durP2;ratioP2;P2;SDS_P1;SDS_P2;PMS_P1;PMS_P2;Temp;Humidity;BMP_temperature;BMP_pressure;BME280_temperature;BME280_humidity;BME280_pressure;Samples;Min_cycle;Max_cycle;Signal;HPM_P1;HPM_P2
2022/03/08 00:02:23;;;;;;;;;;;13.00;49.70;;;;;;5092611;28;19924;-69
2022/03/08 00:04:49;;;;;;;;;;;12.70;49.50;;;;;;5092501;28;19924;-70
2022/03/08 00:07:17;;;;;;;;;;;12.70;49.50;;;;;;5079672;28;19925;-70
2022/03/08 00:09:44;;;;;;;;;;;12.70;49.50;;;;;;5072389;28;19924;-70
2022/03/08 00:12:11;;;;;;;;;;;12.70;49.50;;;;;;5071000;28;19950;-69
2022/03/08 00:14:38;;;;;;;;;;;12.70;49.50;;;;;;5072575;28;19930;-70
2022/03/08 00:17:04;;;;;;;;;;;12.70;49.50;;;;;;5080655;28;19977;-70
2022/03/08 00:19:31;;;;;;;;;;;12.70;49.50;;;;;;5092936;28;19924;-70
2022/03/08 00:21:57;;;;;;;;;;;13.40;49.90;;;;;;5092547;28;19930;-69
2022/03/08 00:24:25;;;;;;;;;;;12.70;49.50;;;;;;5092163;28;19931;-70
2022/03/08 00:26:52;;;;;;;;;;;12.80;49.50;;;;;;5084719;28;19925;-69
2022/03/08 00:29:18;;;;;;;;;;;12.70;49.50;;;;;;5071105;28;19924;-70
2022/03/08 00:31:45;;;;;;;;;;;12.80;49.50;;;;;;5072014;28;19925;-70
2022/03/08 00:34:11;;;;;;;;;;;12.80;49.50;;;;;;5072237;28;19939;-70
2022/03/08 00:36:38;;;;;;;;;;;13.40;49.80;;;;;;5076829;28;19924;-69
2022/03/08 00:39:04;;;;;;;;;;;12.80;49.40;;;;;;5092605;28;19928;-70
2022/03/08 00:41:32;;;;;;;;;;;13.70;50.00;;;;;;5092146;28;19924;-70
2022/03/08 00:43:59;;;;;;;;;;;12.80;49.40;;;;;;5092456;28;19931;-70
2022/03/08 00:46:25;;;;;;;;;;;12.80;50.00;;;;;;5088444;28;19931;-70
2022/03/08 00:48:52;;;;;;;;;;;15.30;50.90;;;;;;5072138;28;19928;-69
2022/03/08 00:51:18;;;;;;;;;;;12.70;49.40;;;;;;5071776;28;20388;-70
2022/03/08 00:53:45;;;;;;;;;;;12.80;49.40;;;;;;5073016;28;20292;-70
2022/03/08 00:56:12;;;;;;;;;;;13.40;49.80;;;;;;5071897;28;20294;-70
2022/03/08 00:58:41;;;;;;;;;;;12.80;49.40;;;;;;5072004;28;20320;-69
2022/03/08 01:01:07;;;;;;;;;;;12.80;49.40;;;;;;5071800;28;19943;-71
2022/03/08 01:03:34;;;;;;;;;;;12.80;49.40;;;;;;5078491;28;19947;-70
2022/03/08 01:06:00;;;;;;;;;;;13.00;49.50;;;;;;5092020;28;19931;-69
2022/03/08 01:08:27;;;;;;;;;;;12.80;49.40;;;;;;5090964;28;19924;-70
2022/03/08 01:10:54;;;;;;;;;;;12.80;49.40;;;;;;5092057;28;19924;-70
2022/03/08 01:13:20;;;;;;;;;;;12.80;49.40;;;;;;5087256;28;19924;-70
2022/03/08 01:15:48;;;;;;;;;;;13.60;49.80;;;;;;5075099;28;19925;-69
2022/03/08 01:18:15;;;;;;;;;;;12.80;49.40;;;;;;5074903;28;20312;-69
2022/03/08 01:20:41;;;;;;;;;;;13.50;50.30;;;;;;5075498;28;20296;-69
2022/03/08 01:23:08;;;;;;;;;;;12.80;49.40;;;;;;5078049;28;20293;-70
2022/03/08 01:25:36;;;;;;;;;;;12.90;49.40;;;;;;5095384;28;20291;-70
2022/03/08 01:28:04;;;;;;;;;;;12.80;49.40;;;;;;5093682;28;19931;-69
2022/03/08 01:30:30;;;;;;;;;;;12.80;49.30;;;;;;5094513;28;19924;-70
2022/03/08 01:32:58;;;;;;;;;;;13.40;49.70;;;;;;5093973;28;19924;-70
2022/03/08 01:35:25;;;;;;;;;;;13.70;49.80;;;;;;5074712;28;19925;-70
2022/03/08 01:37:51;;;;;;;;;;;13.60;49.80;;;;;;5074822;28;20308;-69
2022/03/08 01:40:18;;;;;;;;;;;13.40;49.70;;;;;;5074886;28;20308;-70
2022/03/08 01:42:46;;;;;;;;;;;12.80;49.30;;;;;;5073503;28;19931;-70
2022/03/08 01:45:12;;;;;;;;;;;13.70;49.80;;;;;;5094567;28;20369;-70
2022/03/08 01:47:39;;;;;;;;;;;12.80;49.20;;;;;;5094688;28;20389;-70
2022/03/08 01:50:08;;;;;;;;;;;12.80;49.30;;;;;;5094849;28;19931;-70
2022/03/08 01:52:34;;;;;;;;;;;12.80;49.30;;;;;;5094718;28;20373;-70
2022/03/08 01:55:01;;;;;;;;;;;12.80;49.20;;;;;;5075754;28;20386;-70
2022/03/08 01:57:27;;;;;;;;;;;13.60;49.70;;;;;;5074286;28;20470;-70
2022/03/08 01:59:54;;;;;;;;;;;13.30;49.50;;;;;;5074600;28;20300;-69
2022/03/08 02:02:21;;;;;;;;;;;12.80;49.20;;;;;;5808288;22;20023;-70
2022/03/08 02:04:47;;;;;;;;;;;12.80;49.20;;;;;;5071901;28;19928;-70
2022/03/08 02:07:15;;;;;;;;;;;12.80;49.20;;;;;;5074070;28;19931;-71
2022/03/08 02:09:42;;;;;;;;;;;12.80;49.30;;;;;;5073279;28;20448;-71
2022/03/08 02:12:09;;;;;;;;;;;13.40;49.60;;;;;;5072740;28;20502;-71
2022/03/08 02:14:36;;;;;;;;;;;12.80;49.20;;;;;;5072962;28;19931;-71
2022/03/08 02:17:02;;;;;;;;;;;13.60;49.70;;;;;;5073211;28;19931;-71
2022/03/08 02:19:29;;;;;;;;;;;12.80;49.20;;;;;;5073094;28;20372;-71
2022/03/08 02:21:57;;;;;;;;;;;13.50;49.70;;;;;;5072589;28;20288;-71
2022/03/08 02:24:24;;;;;;;;;;;13.70;49.80;;;;;;5072774;28;19925;-70
2022/03/08 02:26:50;;;;;;;;;;;12.80;49.20;;;;;;5071579;28;19928;-71
2022/03/08 02:29:17;;;;;;;;;;;12.80;49.20;;;;;;5072908;28;19924;-69
2022/03/08 02:31:43;;;;;;;;;;;13.50;49.60;;;;;;5073683;28;19924;-71
2022/03/08 02:34:10;;;;;;;;;;;12.80;49.20;;;;;;5073586;28;19935;-71
2022/03/08 02:36:37;;;;;;;;;;;12.90;49.20;;;;;;5072701;28;19934;-71
2022/03/08 02:39:04;;;;;;;;;;;12.80;49.20;;;;;;5072750;28;19925;-71
2022/03/08 02:41:31;;;;;;;;;;;12.80;49.20;;;;;;5073593;28;20273;-71
2022/03/08 02:43:58;;;;;;;;;;;12.80;49.20;;;;;;5073119;28;20319;-70
2022/03/08 02:46:24;;;;;;;;;;;13.20;49.40;;;;;;5073617;28;19931;-71
2022/03/08 02:48:51;;;;;;;;;;;13.00;49.30;;;;;;5072556;28;19931;-71
2022/03/08 02:51:20;;;;;;;;;;;12.80;49.20;;;;;;5073239;28;19931;-71
2022/03/08 02:53:47;;;;;;;;;;;12.80;49.20;;;;;;5072760;28;19978;-71
2022/03/08 02:56:15;;;;;;;;;;;12.80;49.20;;;;;;5072387;28;19931;-71
2022/03/08 02:58:42;;;;;;;;;;;12.80;49.20;;;;;;5073535;28;19924;-71
2022/03/08 03:01:08;;;;;;;;;;;13.60;49.70;;;;;;5073635;28;19931;-70
2022/03/08 03:03:35;;;;;;;;;;;12.80;49.20;;;;;;5072564;28;19925;-71
2022/03/08 03:06:01;;;;;;;;;;;12.80;49.20;;;;;;5071868;28;19925;-71
2022/03/08 03:08:28;;;;;;;;;;;12.80;49.20;;;;;;5072138;28;19928;-71
2022/03/08 03:10:54;;;;;;;;;;;12.80;49.20;;;;;;5073433;28;19924;-71
2022/03/08 03:13:23;;;;;;;;;;;12.80;49.20;;;;;;5071031;28;19931;-71
2022/03/08 03:15:49;;;;;;;;;;;12.80;49.20;;;;;;5072877;28;19928;-71
2022/03/08 03:18:16;;;;;;;;;;;12.80;49.20;;;;;;5072944;28;19924;-71
2022/03/08 03:20:42;;;;;;;;;;;13.30;49.50;;;;;;5072878;28;20003;-71
2022/03/08 03:23:09;;;;;;;;;;;12.80;49.20;;;;;;5071360;28;19931;-70
2022/03/08 03:25:35;;;;;;;;;;;12.80;49.10;;;;;;5071698;28;19925;-71
2022/03/08 03:28:02;;;;;;;;;;;12.80;49.20;;;;;;5072772;28;19925;-71
2022/03/08 03:30:30;;;;;;;;;;;12.80;49.20;;;;;;5073058;28;19924;-69
2022/03/08 03:32:57;;;;;;;;;;;12.80;49.10;;;;;;5072148;28;20626;-71
2022/03/08 03:35:23;;;;;;;;;;;12.80;49.10;;;;;;5071894;28;19942;-70
2022/03/08 03:37:50;;;;;;;;;;;13.60;49.60;;;;;;5071430;28;19925;-70
2022/03/08 03:40:17;;;;;;;;;;;13.60;49.60;;;;;;5072602;28;19925;-71
2022/03/08 03:42:43;;;;;;;;;;;13.40;49.50;;;;;;5072024;28;19931;-69
2022/03/08 03:45:10;;;;;;;;;;;13.50;49.50;;;;;;5071363;28;19931;-71
2022/03/08 03:47:38;;;;;;;;;;;12.70;49.10;;;;;;5072086;28;20011;-71
2022/03/08 03:50:05;;;;;;;;;;;12.70;49.10;;;;;;5072509;28;20386;-71
2022/03/08 03:52:32;;;;;;;;;;;12.70;49.10;;;;;;5071101;28;19924;-70
2022/03/08 03:54:58;;;;;;;;;;;12.70;49.10;;;;;;5071598;28;19931;-71
2022/03/08 03:57:25;;;;;;;;;;;13.10;49.30;;;;;;5072279;28;19930;-71
2022/03/08 03:59:52;;;;;;;;;;;12.70;49.10;;;;;;5071166;28;19931;-71
2022/03/08 04:02:19;;;;;;;;;;;12.70;49.10;;;;;;5054290;28;20007;-71
2022/03/08 04:04:47;;;;;;;;;;;12.70;49.10;;;;;;5071180;28;19924;-71
2022/03/08 04:07:13;;;;;;;;;;;12.70;49.10;;;;;;5072304;28;19925;-71
2022/03/08 04:09:40;;;;;;;;;;;12.70;49.10;;;;;;5071499;28;19924;-71
2022/03/08 04:12:07;;;;;;;;;;;13.20;49.30;;;;;;5070392;28;19924;-70
2022/03/08 04:14:33;;;;;;;;;;;12.70;49.10;;;;;;5070804;28;19931;-71
2022/03/08 04:17:02;;;;;;;;;;;13.50;49.60;;;;;;5071656;28;20546;-71
2022/03/08 04:19:28;;;;;;;;;;;12.70;49.10;;;;;;5067984;28;20457;-70
2022/03/08 04:21:57;;;;;;;;;;;12.70;49.10;;;;;;5070452;28;19931;-71
2022/03/08 04:24:23;;;;;;;;;;;12.70;49.10;;;;;;5053920;28;20600;-70
2022/03/08 04:26:50;;;;;;;;;;;12.70;49.10;;;;;;5070401;28;19924;-71
2022/03/08 04:29:16;;;;;;;;;;;12.70;49.10;;;;;;5070406;28;19931;-69
2022/03/08 04:31:43;;;;;;;;;;;12.70;49.10;;;;;;5071150;28;19925;-71
2022/03/08 04:34:10;;;;;;;;;;;13.50;49.50;;;;;;5068985;28;19924;-71
2022/03/08 04:36:36;;;;;;;;;;;12.60;49.00;;;;;;5071411;28;19931;-71
2022/03/08 04:39:04;;;;;;;;;;;12.70;49.00;;;;;;5070700;28;20323;-70
2022/03/08 04:41:31;;;;;;;;;;;13.50;49.50;;;;;;5068872;28;19928;-71
2022/03/08 04:43:57;;;;;;;;;;;12.70;49.10;;;;;;5070194;28;19928;-70
2022/03/08 04:46:24;;;;;;;;;;;13.20;49.30;;;;;;5071001;28;19975;-70
2022/03/08 04:48:51;;;;;;;;;;;12.70;49.00;;;;;;5072657;28;19924;-71
2022/03/08 04:51:17;;;;;;;;;;;12.70;49.00;;;;;;5074270;28;20003;-69
2022/03/08 04:53:44;;;;;;;;;;;12.60;48.90;;;;;;5074807;28;19932;-70
2022/03/08 04:56:12;;;;;;;;;;;12.60;48.90;;;;;;5074780;28;19924;-71
2022/03/08 04:58:38;;;;;;;;;;;13.60;49.50;;;;;;5075871;28;19924;-70
2022/03/08 05:01:05;;;;;;;;;;;12.70;49.00;;;;;;5075207;28;19924;-70
2022/03/08 05:03:31;;;;;;;;;;;12.70;49.00;;;;;;5073812;28;19929;-70
2022/03/08 05:05:58;;;;;;;;;;;12.80;49.10;;;;;;5074153;28;19931;-69
2022/03/08 05:08:24;;;;;;;;;;;12.70;49.00;;;;;;5074227;28;19931;-70
2022/03/08 05:10:51;;;;;;;;;;;12.70;49.00;;;;;;5074170;28;20023;-70
2022/03/08 05:13:19;;;;;;;;;;;12.60;48.90;;;;;;5073458;28;20011;-71
2022/03/08 05:15:48;;;;;;;;;;;13.50;49.40;;;;;;5075081;28;20389;-71
2022/03/08 05:18:15;;;;;;;;;;;13.60;49.50;;;;;;5075336;28;19931;-70
2022/03/08 05:20:41;;;;;;;;;;;13.70;49.50;;;;;;5075178;28;19975;-69
2022/03/08 05:23:08;;;;;;;;;;;12.60;49.20;;;;;;5074810;28;20009;-70
2022/03/08 05:25:35;;;;;;;;;;;12.60;48.90;;;;;;5073612;28;20015;-70
2022/03/08 05:28:01;;;;;;;;;;;12.60;48.90;;;;;;5075072;28;20400;-70
2022/03/08 05:30:29;;;;;;;;;;;12.60;48.90;;;;;;5074259;28;19951;-70
2022/03/08 05:32:56;;;;;;;;;;;12.60;48.90;;;;;;5074857;28;19974;-70
2022/03/08 05:35:23;;;;;;;;;;;13.50;49.40;;;;;;5074563;28;19930;-67
2022/03/08 05:37:49;;;;;;;;;;;12.60;48.90;;;;;;5074757;28;20419;-70
2022/03/08 05:40:16;;;;;;;;;;;12.90;49.00;;;;;;5074854;28;19976;-70
2022/03/08 05:42:43;;;;;;;;;;;12.60;48.90;;;;;;5074771;28;19931;-70
2022/03/08 05:45:10;;;;;;;;;;;12.60;48.90;;;;;;5073813;28;20292;-71
2022/03/08 05:47:39;;;;;;;;;;;12.60;48.90;;;;;;5073618;28;19924;-69
2022/03/08 05:50:05;;;;;;;;;;;12.60;48.90;;;;;;5073657;28;19924;-70
2022/03/08 05:52:32;;;;;;;;;;;12.60;48.90;;;;;;5074388;28;20299;-70
2022/03/08 05:54:58;;;;;;;;;;;13.40;49.30;;;;;;5073770;28;20269;-70
2022/03/08 05:57:25;;;;;;;;;;;12.60;48.90;;;;;;5073480;28;20285;-68
2022/03/08 05:59:52;;;;;;;;;;;12.60;48.90;;;;;;5073424;28;20310;-70
2022/03/08 06:02:18;;;;;;;;;;;12.60;48.90;;;;;;5072820;28;20256;-70
2022/03/08 06:04:46;;;;;;;;;;;12.60;48.80;;;;;;5056631;28;20300;-70
2022/03/08 06:07:13;;;;;;;;;;;12.60;48.80;;;;;;5074166;28;19925;-70
2022/03/08 06:09:40;;;;;;;;;;;12.60;48.80;;;;;;5073057;28;19925;-68
2022/03/08 06:12:07;;;;;;;;;;;12.60;48.80;;;;;;5073017;28;19924;-71
2022/03/08 06:14:34;;;;;;;;;;;12.60;48.80;;;;;;5072933;28;19947;-68
2022/03/08 06:17:00;;;;;;;;;;;12.50;48.80;;;;;;5072863;28;19930;-71
2022/03/08 06:19:27;;;;;;;;;;;12.90;49.00;;;;;;5073916;28;19931;-70
2022/03/08 06:21:55;;;;;;;;;;;12.60;48.80;;;;;;5073770;28;19924;-70
2022/03/08 06:24:21;;;;;;;;;;;12.60;48.80;;;;;;5073010;28;19925;-70
2022/03/08 06:26:51;;;;;;;;;;;12.60;48.80;;;;;;5072419;28;19931;-70
2022/03/08 06:29:18;;;;;;;;;;;12.90;48.90;;;;;;5072957;28;19931;-71
2022/03/08 06:31:44;;;;;;;;;;;12.60;48.80;;;;;;5072354;28;19924;-68
2022/03/08 06:34:11;;;;;;;;;;;12.60;48.80;;;;;;5073672;28;19931;-70
2022/03/08 06:36:39;;;;;;;;;;;13.50;49.30;;;;;;5072531;28;19924;-70
2022/03/08 06:39:07;;;;;;;;;;;12.60;48.70;;;;;;5073779;28;19990;-71
2022/03/08 06:41:34;;;;;;;;;;;12.60;48.70;;;;;;5073613;28;19924;-70
2022/03/08 06:44:00;;;;;;;;;;;12.60;48.70;;;;;;5073658;28;19924;-71
2022/03/08 06:46:27;;;;;;;;;;;13.00;49.00;;;;;;5072190;28;19924;-69
2022/03/08 06:48:53;;;;;;;;;;;12.60;48.80;;;;;;5072403;28;19924;-70
2022/03/08 06:51:20;;;;;;;;;;;12.60;48.70;;;;;;5071729;28;19975;-70
2022/03/08 06:53:46;;;;;;;;;;;12.60;48.70;;;;;;5073368;28;19924;-70
2022/03/08 06:56:14;;;;;;;;;;;12.60;48.70;;;;;;5065188;28;19932;-69
2022/03/08 06:58:41;;;;;;;;;;;12.60;48.70;;;;;;5072527;28;19963;-71
2022/03/08 07:01:07;;;;;;;;;;;12.60;48.60;;;;;;5073359;28;19924;-69
2022/03/08 07:03:34;;;;;;;;;;;12.60;48.60;;;;;;5072965;28;19925;-70
2022/03/08 07:06:01;;;;;;;;;;;12.60;48.60;;;;;;5073229;28;19932;-70
2022/03/08 07:08:27;;;;;;;;;;;12.60;48.60;;;;;;5073378;28;19924;-70
2022/03/08 07:10:54;;;;;;;;;;;12.60;48.60;;;;;;5071631;28;19924;-71
2022/03/08 07:13:23;;;;;;;;;;;12.60;48.60;;;;;;5052818;28;20276;-72
2022/03/08 07:15:50;;;;;;;;;;;12.60;48.60;;;;;;5053351;28;20504;-71
2022/03/08 07:18:16;;;;;;;;;;;12.60;48.60;;;;;;5072142;28;19924;-72
2022/03/08 07:20:43;;;;;;;;;;;12.70;48.70;;;;;;5073318;28;19950;-71
2022/03/08 07:23:09;;;;;;;;;;;12.70;48.70;;;;;;5071812;28;19946;-71
2022/03/08 07:25:37;;;;;;;;;;;12.70;49.10;;;;;;5055331;28;19924;-70
2022/03/08 07:28:04;;;;;;;;;;;13.30;49.90;;;;;;5072650;28;19924;-69
2022/03/08 07:30:33;;;;;;;;;;;12.80;49.70;;;;;;5071794;28;19924;-71
2022/03/08 07:32:59;;;;;;;;;;;12.80;49.50;;;;;;5071172;28;19924;-71
2022/03/08 07:35:26;;;;;;;;;;;13.30;49.30;;;;;;5072726;28;19924;-71
2022/03/08 07:37:52;;;;;;;;;;;12.90;48.90;;;;;;5072433;28;20334;-71
2022/03/08 07:40:19;;;;;;;;;;;13.00;48.90;;;;;;5071747;28;20301;-71
2022/03/08 07:42:46;;;;;;;;;;;13.20;48.90;;;;;;5071258;28;19947;-71
2022/03/08 07:45:12;;;;;;;;;;;13.10;48.80;;;;;;5059782;28;20023;-71
2022/03/08 07:47:40;;;;;;;;;;;13.10;48.70;;;;;;5067274;28;19931;-70
2022/03/08 07:50:07;;;;;;;;;;;13.10;48.70;;;;;;5072537;28;19925;-71
2022/03/08 07:52:34;;;;;;;;;;;13.20;48.80;;;;;;5071745;28;19924;-71
2022/03/08 07:55:00;;;;;;;;;;;13.20;48.70;;;;;;5072030;28;19924;-71
2022/03/08 07:57:27;;;;;;;;;;;13.30;48.80;;;;;;5072361;28;20031;-69
2022/03/08 07:59:53;;;;;;;;;;;13.30;48.70;;;;;;5072498;28;19928;-71
2022/03/08 08:02:20;;;;;;;;;;;13.30;48.70;;;;;;5073577;28;19931;-71
2022/03/08 08:04:48;;;;;;;;;;;13.30;48.70;;;;;;5072074;28;19935;-71
2022/03/08 08:07:14;;;;;;;;;;;13.40;49.10;;;;;;5073496;28;19932;-71
2022/03/08 08:09:41;;;;;;;;;;;13.90;48.90;;;;;;5071324;28;19933;-71
2022/03/08 08:12:08;;;;;;;;;;;13.60;49.00;;;;;;5070315;28;20004;-71
2022/03/08 08:14:35;;;;;;;;;;;13.50;48.80;;;;;;5060600;28;19925;-71
2022/03/08 08:17:01;;;;;;;;;;;13.80;48.90;;;;;;5070545;28;20003;-71
2022/03/08 08:19:28;;;;;;;;;;;13.50;48.70;;;;;;5072123;28;19929;-71
2022/03/08 08:21:56;;;;;;;;;;;13.60;48.70;;;;;;5070691;28;19931;-71
2022/03/08 08:24:22;;;;;;;;;;;13.60;48.70;;;;;;5073281;28;19925;-71
2022/03/08 08:26:49;;;;;;;;;;;13.60;48.70;;;;;;5076319;28;19931;-70
2022/03/08 08:29:15;;;;;;;;;;;13.60;48.60;;;;;;5074951;28;19930;-70
2022/03/08 08:31:42;;;;;;;;;;;13.60;48.60;;;;;;5061873;28;19982;-68
2022/03/08 08:34:08;;;;;;;;;;;13.70;48.60;;;;;;5073468;28;19931;-70
2022/03/08 08:36:35;;;;;;;;;;;16.50;50.20;;;;;;5072996;28;19931;-71
2022/03/08 08:39:03;;;;;;;;;;;13.70;48.60;;;;;;5074715;28;19928;-71
2022/03/08 08:41:29;;;;;;;;;;;14.40;49.00;;;;;;5075416;28;19924;-71
2022/03/08 08:43:56;;;;;;;;;;;13.80;48.60;;;;;;5074505;28;20381;-70
2022/03/08 08:46:23;;;;;;;;;;;13.80;48.60;;;;;;5075506;28;20300;-70
2022/03/08 08:48:49;;;;;;;;;;;13.80;48.60;;;;;;5074619;28;20287;-72
2022/03/08 08:51:16;;;;;;;;;;;13.80;48.60;;;;;;5073690;28;19931;-70
2022/03/08 08:53:43;;;;;;;;;;;14.20;48.80;;;;;;5067322;28;19924;-70
2022/03/08 08:56:10;;;;;;;;;;;13.80;48.60;;;;;;5074889;28;19924;-68
2022/03/08 08:58:37;;;;;;;;;;;13.80;48.50;;;;;;5074736;28;19924;-68
2022/03/08 09:01:03;;;;;;;;;;;13.80;48.50;;;;;;5075398;28;19931;-68
2022/03/08 09:03:30;;;;;;;;;;;13.80;48.50;;;;;;5074097;28;19924;-68
2022/03/08 09:05:57;;;;;;;;;;;13.80;48.50;;;;;;5075326;28;19924;-68
2022/03/08 09:08:24;;;;;;;;;;;13.80;48.60;;;;;;5074102;28;19924;-68
2022/03/08 09:10:51;;;;;;;;;;;13.90;48.60;;;;;;5075361;28;19939;-69
2022/03/08 09:13:19;;;;;;;;;;;13.80;49.00;;;;;;5075217;28;19932;-68
2022/03/08 09:15:46;;;;;;;;;;;13.90;48.40;;;;;;5073801;28;20380;-68
2022/03/08 09:18:12;;;;;;;;;;;13.90;48.40;;;;;;5074509;28;19924;-68
2022/03/08 09:20:39;;;;;;;;;;;13.90;48.70;;;;;;5075528;28;19924;-68
2022/03/08 09:23:06;;;;;;;;;;;13.90;48.90;;;;;;5073848;28;20369;-70
2022/03/08 09:25:33;;;;;;;;;;;14.00;49.00;;;;;;5073729;28;19924;-67
2022/03/08 09:28:01;;;;;;;;;;;14.00;48.70;;;;;;5060614;28;19932;-68
2022/03/08 09:30:30;;;;;;;;;;;14.10;48.70;;;;;;5055257;28;19928;-68
2022/03/08 09:32:58;;;;;;;;;;;13.70;48.60;;;;;;5054004;28;19932;-69
2022/03/08 09:35:25;;;;;;;;;;;14.20;48.90;;;;;;5053031;28;19936;-68
2022/03/08 09:37:51;;;;;;;;;;;14.30;49.00;;;;;;5053876;28;19924;-70
2022/03/08 09:40:18;;;;;;;;;;;14.30;48.70;;;;;;5068923;28;20007;-68
2022/03/08 09:42:44;;;;;;;;;;;14.40;49.10;;;;;;5073234;28;19928;-69
2022/03/08 09:45:11;;;;;;;;;;;14.40;48.40;;;;;;5070610;28;19931;-70
2022/03/08 09:47:39;;;;;;;;;;;14.40;48.30;;;;;;5072666;28;19978;-69
2022/03/08 09:50:06;;;;;;;;;;;14.40;48.20;;;;;;5072629;28;19931;-69
2022/03/08 09:52:33;;;;;;;;;;;14.50;48.20;;;;;;5073878;28;19998;-69
2022/03/08 09:54:59;;;;;;;;;;;14.50;48.80;;;;;;5073020;28;19924;-69
2022/03/08 09:57:26;;;;;;;;;;;14.50;48.20;;;;;;5074213;28;19924;-69
2022/03/08 09:59:53;;;;;;;;;;;14.50;48.10;;;;;;5073894;28;19924;-70
2022/03/08 10:02:22;;;;;;;;;;;14.50;48.20;;;;;;5072605;28;19960;-70
2022/03/08 10:05:01;;;;;;;;;;;14.50;48.10;;;;;;5073060;28;19958;-70
2022/03/08 10:07:27;;;;;;;;;;;14.50;48.10;;;;;;5073062;28;19924;-69
2022/03/08 10:09:57;;;;;;;;;;;14.50;48.50;;;;;;5073134;28;20011;-71
2022/03/08 10:12:24;;;;;;;;;;;14.60;48.80;;;;;;5072327;28;20011;-70
2022/03/08 10:14:51;;;;;;;;;;;14.70;48.90;;;;;;5073011;28;19924;-68
2022/03/08 10:17:33;;;;;;;;;;;14.70;48.90;;;;;;5072627;28;19932;-68
2022/03/08 10:20:01;;;;;;;;;;;14.80;48.60;;;;;;5072810;28;19946;-67
2022/03/08 10:22:29;;;;;;;;;;;14.90;48.50;;;;;;5072643;28;20436;-68
2022/03/08 10:25:09;;;;;;;;;;;15.00;48.40;;;;;;5073290;28;20304;-68
2022/03/08 10:27:35;;;;;;;;;;;15.00;48.30;;;;;;5073328;28;20268;-67
2022/03/08 10:30:02;;;;;;;;;;;15.10;48.30;;;;;;5074019;28;20292;-69
2022/03/08 10:32:35;;;;;;;;;;;15.10;48.10;;;;;;5072622;28;20389;-70
2022/03/08 10:35:03;;;;;;;;;;;15.20;48.00;;;;;;5073725;28;20428;-69
2022/03/08 10:37:35;;;;;;;;;;;15.10;47.80;;;;;;5072593;28;19931;-70
2022/03/08 10:40:02;;;;;;;;;;;15.10;47.90;;;;;;5073764;28;20530;-69
2022/03/08 10:42:29;;;;;;;;;;;15.10;47.80;;;;;;5073356;28;19935;-69
2022/03/08 10:45:00;;;;;;;;;;;15.10;47.80;;;;;;5073462;28;19924;-69
2022/03/08 10:47:27;;;;;;;;;;;15.10;47.80;;;;;;5072392;28;19974;-68
2022/03/08 10:49:54;;;;;;;;;;;15.10;47.80;;;;;;5073630;28;19924;-68
2022/03/08 10:52:29;;;;;;;;;;;15.10;48.00;;;;;;5073539;28;19924;-68
2022/03/08 10:54:55;;;;;;;;;;;15.10;47.80;;;;;;5073084;28;19925;-69
2022/03/08 10:57:22;;;;;;;;;;;15.10;47.80;;;;;;5072848;28;19925;-69
2022/03/08 10:59:55;;;;;;;;;;;15.10;47.80;;;;;;5072482;28;19924;-69
2022/03/08 11:02:22;;;;;;;;;;;15.20;48.20;;;;;;5072016;28;19931;-69
2022/03/08 11:04:49;;;;;;;;;;;15.30;48.00;;;;;;5071515;28;19976;-69
2022/03/08 11:07:15;;;;;;;;;;;15.30;47.90;;;;;;5071661;28;19935;-69
2022/03/08 11:09:43;;;;;;;;;;;15.30;48.50;;;;;;5071716;28;19924;-69
2022/03/08 11:12:10;;;;;;;;;;;15.30;47.90;;;;;;5073077;28;19929;-69
2022/03/08 11:14:36;;;;;;;;;;;15.30;47.90;;;;;;5072685;28;20019;-68
2022/03/08 11:17:03;;;;;;;;;;;15.30;48.00;;;;;;5072809;28;19924;-70
2022/03/08 11:19:29;;;;;;;;;;;15.40;48.00;;;;;;5073099;28;19924;-69
2022/03/08 11:21:57;;;;;;;;;;;15.40;48.00;;;;;;5072031;28;19924;-68
2022/03/08 11:24:23;;;;;;;;;;;15.40;48.00;;;;;;5072857;28;19924;-69
2022/03/08 11:26:51;;;;;;;;;;;15.40;48.10;;;;;;5071429;28;19924;-69
2022/03/08 11:29:18;;;;;;;;;;;15.50;48.10;;;;;;5068559;28;19931;-70
2022/03/08 11:31:44;;;;;;;;;;;15.60;48.10;;;;;;5066607;28;19935;-69
2022/03/08 11:34:13;;;;;;;;;;;15.60;47.90;;;;;;5071044;28;20419;-68
2022/03/08 11:36:42;;;;;;;;;;;15.60;47.90;;;;;;5071175;28;20404;-68
2022/03/08 11:39:19;;;;;;;;;;;15.60;47.90;;;;;;5072443;28;19954;-68
2022/03/08 11:41:46;;;;;;;;;;;15.60;47.90;;;;;;5071882;28;19925;-69
2022/03/08 11:44:21;;;;;;;;;;;15.60;47.90;;;;;;5072423;28;19925;-69
2022/03/08 11:47:03;;;;;;;;;;;15.60;47.90;;;;;;5070555;28;19931;-69
2022/03/08 11:49:46;;;;;;;;;;;15.60;47.90;;;;;;5066613;28;19931;-69
2022/03/08 11:52:16;;;;;;;;;;;15.60;47.90;;;;;;5070546;28;20303;-69
2022/03/08 11:54:51;;;;;;;;;;;15.60;47.80;;;;;;5071744;28;19925;-68
2022/03/08 11:57:29;;;;;;;;;;;15.60;47.80;;;;;;5071140;28;19928;-68
2022/03/08 12:00:11;;;;;;;;;;;15.60;47.90;;;;;;5071690;28;19925;-68
2022/03/08 12:02:44;;;;;;;;;;;15.60;47.90;;;;;;5070436;28;19925;-68
2022/03/08 12:05:26;;;;;;;;;;;15.60;47.90;;;;;;5071309;28;19928;-68
2022/03/08 12:07:52;;;;;;;;;;;15.60;47.80;;;;;;5071957;28;19925;-69
2022/03/08 12:10:25;;;;;;;;;;;15.60;47.80;;;;;;5072093;28;19931;-68
2022/03/08 12:12:53;;;;;;;;;;;15.60;47.70;;;;;;5071939;28;19931;-68
2022/03/08 12:15:20;;;;;;;;;;;15.60;47.70;;;;;;5072111;28;20015;-68
2022/03/08 12:17:57;;;;;;;;;;;15.60;47.70;;;;;;5072356;28;20011;-68
2022/03/08 12:20:24;;;;;;;;;;;15.60;47.70;;;;;;5072085;28;19946;-68
2022/03/08 12:22:50;;;;;;;;;;;15.50;47.60;;;;;;5070203;28;19931;-68
2022/03/08 12:25:17;;;;;;;;;;;15.60;47.70;;;;;;5070169;28;19961;-68
2022/03/08 12:27:47;;;;;;;;;;;15.50;47.60;;;;;;5070734;28;19931;-68
2022/03/08 12:30:14;;;;;;;;;;;15.50;47.60;;;;;;5072317;28;19925;-68
2022/03/08 12:32:41;;;;;;;;;;;15.50;47.60;;;;;;5070555;28;20300;-68
2022/03/08 12:35:14;;;;;;;;;;;15.50;47.60;;;;;;5071934;28;19925;-68
2022/03/08 12:37:45;;;;;;;;;;;15.50;47.50;;;;;;5072113;28;19979;-68
2022/03/08 12:40:22;;;;;;;;;;;15.50;47.50;;;;;;5070758;28;20292;-69
2022/03/08 12:42:49;;;;;;;;;;;15.50;47.50;;;;;;5071368;28;20337;-68
2022/03/08 12:45:17;;;;;;;;;;;15.40;47.50;;;;;;5070620;28;19926;-68
2022/03/08 12:47:46;;;;;;;;;;;15.40;47.50;;;;;;5070852;28;20404;-69
2022/03/08 12:50:15;;;;;;;;;;;15.40;47.40;;;;;;5071726;28;20387;-68
2022/03/08 12:52:43;;;;;;;;;;;15.40;47.40;;;;;;5071783;28;19924;-68
2022/03/08 12:55:11;;;;;;;;;;;15.40;47.40;;;;;;5070680;28;19950;-68
2022/03/08 12:57:45;;;;;;;;;;;15.40;47.50;;;;;;5071593;28;19928;-68
2022/03/08 13:00:13;;;;;;;;;;;15.30;48.10;;;;;;5072008;28;19924;-68
2022/03/08 13:02:39;;;;;;;;;;;15.40;47.50;;;;;;5070943;28;19924;-68
2022/03/08 13:05:06;;;;;;;;;;;15.30;47.40;;;;;;5071060;28;19924;-69
2022/03/08 13:07:34;;;;;;;;;;;15.30;47.40;;;;;;5071812;28;19924;-68
2022/03/08 13:10:01;;;;;;;;;;;15.30;47.50;;;;;;5071916;28;19924;-68
2022/03/08 13:12:28;;;;;;;;;;;15.30;47.40;;;;;;5075050;28;19931;-68
2022/03/08 13:15:10;;;;;;;;;;;15.30;47.40;;;;;;5075493;28;19924;-68
2022/03/08 13:17:37;;;;;;;;;;;15.30;47.40;;;;;;5074010;28;19943;-69
2022/03/08 13:20:04;;;;;;;;;;;15.30;47.40;;;;;;5075244;28;19967;-68
2022/03/08 13:22:31;;;;;;;;;;;15.20;47.40;;;;;;5073545;28;20375;-69
2022/03/08 13:25:08;;;;;;;;;;;15.20;47.40;;;;;;5074593;28;20303;-67
2022/03/08 13:27:48;;;;;;;;;;;15.20;47.30;;;;;;5073700;28;19957;-68
2022/03/08 13:30:15;;;;;;;;;;;15.20;47.40;;;;;;5074801;28;19924;-68
2022/03/08 13:32:42;;;;;;;;;;;15.20;47.40;;;;;;5073628;28;20039;-68
2022/03/08 13:35:09;;;;;;;;;;;15.10;47.40;;;;;;5073395;28;19931;-68
2022/03/08 13:37:46;;;;;;;;;;;15.10;47.40;;;;;;5074104;28;19979;-68
2022/03/08 13:40:25;;;;;;;;;;;15.10;47.50;;;;;;5073599;28;19925;-68
2022/03/08 13:42:52;;;;;;;;;;;15.10;47.50;;;;;;5074440;28;19934;-68
2022/03/08 13:45:18;;;;;;;;;;;15.10;47.50;;;;;;5074498;28;19925;-68
2022/03/08 13:47:45;;;;;;;;;;;15.10;47.40;;;;;;5073798;28;19951;-68
2022/03/08 13:50:11;;;;;;;;;;;15.10;47.40;;;;;;5073660;28;19955;-69
2022/03/08 13:52:38;;;;;;;;;;;15.00;47.50;;;;;;5073040;28;19924;-68
2022/03/08 13:55:05;;;;;;;;;;;15.00;47.50;;;;;;5073017;28;19924;-68
2022/03/08 13:57:33;;;;;;;;;;;15.00;47.40;;;;;;5074024;28;19999;-68
2022/03/08 13:59:59;;;;;;;;;;;15.00;47.40;;;;;;5074116;28;20534;-68
2022/03/08 14:02:26;;;;;;;;;;;15.00;47.40;;;;;;5073940;28;19932;-68
2022/03/08 14:04:52;;;;;;;;;;;15.00;47.40;;;;;;5073507;28;19924;-67
2022/03/08 14:07:20;;;;;;;;;;;15.00;47.50;;;;;;5073121;28;19925;-68
2022/03/08 14:09:55;;;;;;;;;;;14.90;47.50;;;;;;5074231;28;20339;-69
2022/03/08 14:12:21;;;;;;;;;;;15.00;47.50;;;;;;5074240;28;19925;-68
2022/03/08 14:14:56;;;;;;;;;;;14.90;47.40;;;;;;5073238;28;20426;-68
2022/03/08 14:17:29;;;;;;;;;;;14.90;47.50;;;;;;5074023;28;19924;-68
2022/03/08 14:19:56;;;;;;;;;;;14.90;47.50;;;;;;5073253;28;20397;-68